sensor_id;sensor_type;location;lat;lon;timestamp;P1;durP1;ratioP1;P2;durP2;ratioP2
12171;SDS011;6149;52.418;13.668;2024-02-26T00:01:44;14.27;;;10.83;;
12171;SDS011;6149;52.418;13.668;2024-02-26T00:04:11;13.60;;;11.60;;
12171;SDS011;6149;52.418;13.668;2024-02-26T00:06:38;13.90;;;11.70;;
12171;SDS011;6149;52.418;13.668;2024-02-26T00:09:06;14.93;;;11.73;;
12171;SDS011;6149;52.418;13.668;2024-02-26T00:11:32;13.87;;;10.87;;
12171;SDS011;6149;52.418;13.668;2024-02-26T00:14:00;13.23;;;10.13;;
12171;SDS011;6149;52.418;13.668;2024-02-26T00:16:27;14.17;;;9.77;;
12171;SDS011;6149;52.418;13.668;2024-02-26T00:18:53;13.37;;;10.33;;
12171;SDS011;6149;52.418;13.668;2024-02-26T00:21:20;12.47;;;9.77;;
12171;SDS011;6149;52.418;13.668;2024-02-26T00:23:46;12.57;;;10.53;;
12171;SDS011;6149;52.418;13.668;2024-02-26T00:26:13;13.80;;;10.97;;
12171;SDS011;6149;52.418;13.668;2024-02-26T00:28:40;13.20;;;10.67;;
12171;SDS011;6149;52.418;13.668;2024-02-26T00:31:08;13.80;;;9.40;;
12171;SDS011;6149;52.418;13.668;2024-02-26T00:33:34;10.70;;;9.00;;
12171;SDS011;6149;52.418;13.668;2024-02-26T00:36:01;11.83;;;8.83;;
12171;SDS011;6149;52.418;13.668;2024-02-26T00:38:28;10.97;;;8.63;;
12171;SDS011;6149;52.418;13.668;2024-02-26T00:40:54;11.17;;;8.63;;
12171;SDS011;6149;52.418;13.668;2024-02-26T00:43:21;13.17;;;8.90;;
12171;SDS011;6149;52.418;13.668;2024-02-26T00:45:47;12.97;;;9.43;;
12171;SDS011;6149;52.418;13.668;2024-02-26T00:48:15;11.40;;;8.53;;
12171;SDS011;6149;52.418;13.668;2024-02-26T00:50:42;11.00;;;9.17;;
12171;SDS011;6149;52.418;13.668;2024-02-26T00:53:08;11.07;;;9.53;;
12171;SDS011;6149;52.418;13.668;2024-02-26T00:55:35;9.73;;;8.50;;
12171;SDS011;6149;52.418;13.668;2024-02-26T00:58:02;10.57;;;8.50;;
12171;SDS011;6149;52.418;13.668;2024-02-26T01:00:28;9.90;;;8.07;;
12171;SDS011;6149;52.418;13.668;2024-02-26T01:02:55;12.23;;;8.80;;
12171;SDS011;6149;52.418;13.668;2024-02-26T01:05:23;9.77;;;7.87;;
12171;SDS011;6149;52.418;13.668;2024-02-26T01:07:49;11.23;;;8.70;;
12171;SDS011;6149;52.418;13.668;2024-02-26T01:10:16;11.63;;;8.07;;
12171;SDS011;6149;52.418;13.668;2024-02-26T01:12:43;12.63;;;9.43;;
12171;SDS011;6149;52.418;13.668;2024-02-26T01:15:09;10.00;;;7.77;;
12171;SDS011;6149;52.418;13.668;2024-02-26T01:17:36;11.60;;;8.40;;
12171;SDS011;6149;52.418;13.668;2024-02-26T01:20:04;11.30;;;7.90;;
12171;SDS011;6149;52.418;13.668;2024-02-26T01:22:34;11.70;;;9.10;;
12171;SDS011;6149;52.418;13.668;2024-02-26T01:25:01;11.47;;;8.33;;
12171;SDS011;6149;52.418;13.668;2024-02-26T01:27:27;10.40;;;8.20;;
12171;SDS011;6149;52.418;13.668;2024-02-26T01:29:54;10.50;;;8.47;;
12171;SDS011;6149;52.418;13.668;2024-02-26T01:32:20;9.83;;;8.10;;
12171;SDS011;6149;52.418;13.668;2024-02-26T01:34:47;12.47;;;8.57;;
12171;SDS011;6149;52.418;13.668;2024-02-26T01:37:13;11.17;;;8.23;;
12171;SDS011;6149;52.418;13.668;2024-02-26T01:39:41;13.10;;;8.97;;
12171;SDS011;6149;52.418;13.668;2024-02-26T01:42:08;13.67;;;9.37;;
12171;SDS011;6149;52.418;13.668;2024-02-26T01:44:34;10.77;;;8.87;;
12171;SDS011;6149;52.418;13.668;2024-02-26T01:47:03;10.20;;;8.23;;
12171;SDS011;6149;52.418;13.668;2024-02-26T01:49:32;10.00;;;8.03;;
12171;SDS011;6149;52.418;13.668;2024-02-26T01:51:58;10.67;;;8.23;;
12171;SDS011;6149;52.418;13.668;2024-02-26T01:54:25;10.13;;;8.80;;
12171;SDS011;6149;52.418;13.668;2024-02-26T01:56:53;11.53;;;7.67;;
12171;SDS011;6149;52.418;13.668;2024-02-26T01:59:20;8.60;;;7.67;;
12171;SDS011;6149;52.418;13.668;2024-02-26T02:01:48;9.83;;;8.20;;
12171;SDS011;6149;52.418;13.668;2024-02-26T02:04:21;10.40;;;8.20;;
12171;SDS011;6149;52.418;13.668;2024-02-26T02:06:49;10.87;;;7.80;;
12171;SDS011;6149;52.418;13.668;2024-02-26T02:09:16;8.60;;;7.57;;
12171;SDS011;6149;52.418;13.668;2024-02-26T02:11:44;11.53;;;7.40;;
12171;SDS011;6149;52.418;13.668;2024-02-26T02:14:12;12.03;;;8.07;;
12171;SDS011;6149;52.418;13.668;2024-02-26T02:16:39;11.23;;;7.17;;
12171;SDS011;6149;52.418;13.668;2024-02-26T02:19:05;8.53;;;6.97;;
12171;SDS011;6149;52.418;13.668;2024-02-26T02:21:33;8.63;;;6.90;;
12171;SDS011;6149;52.418;13.668;2024-02-26T02:24:00;8.80;;;7.07;;
12171;SDS011;6149;52.418;13.668;2024-02-26T02:26:26;8.93;;;6.87;;
12171;SDS011;6149;52.418;13.668;2024-02-26T02:28:53;11.47;;;7.47;;
12171;SDS011;6149;52.418;13.668;2024-02-26T02:31:20;8.60;;;7.30;;
12171;SDS011;6149;52.418;13.668;2024-02-26T02:33:46;7.53;;;6.40;;
12171;SDS011;6149;52.418;13.668;2024-02-26T02:36:13;9.20;;;7.43;;
12171;SDS011;6149;52.418;13.668;2024-02-26T02:38:49;9.03;;;6.47;;
12171;SDS011;6149;52.418;13.668;2024-02-26T02:41:16;9.57;;;7.07;;
12171;SDS011;6149;52.418;13.668;2024-02-26T02:43:43;8.73;;;7.00;;
12171;SDS011;6149;52.418;13.668;2024-02-26T02:46:10;8.23;;;6.87;;
12171;SDS011;6149;52.418;13.668;2024-02-26T02:48:37;10.67;;;7.37;;
12171;SDS011;6149;52.418;13.668;2024-02-26T02:51:04;9.40;;;6.97;;
12171;SDS011;6149;52.418;13.668;2024-02-26T02:53:30;8.50;;;6.50;;
12171;SDS011;6149;52.418;13.668;2024-02-26T02:55:58;7.73;;;6.40;;
12171;SDS011;6149;52.418;13.668;2024-02-26T02:58:25;7.50;;;6.47;;
12171;SDS011;6149;52.418;13.668;2024-02-26T03:00:51;8.90;;;6.57;;
12171;SDS011;6149;52.418;13.668;2024-02-26T03:03:20;8.60;;;6.27;;
12171;SDS011;6149;52.418;13.668;2024-02-26T03:05:49;9.10;;;6.60;;
12171;SDS011;6149;52.418;13.668;2024-02-26T03:08:15;9.90;;;6.90;;
12171;SDS011;6149;52.418;13.668;2024-02-26T03:10:42;8.50;;;6.97;;
12171;SDS011;6149;52.418;13.668;2024-02-26T03:13:10;9.33;;;6.43;;
12171;SDS011;6149;52.418;13.668;2024-02-26T03:15:36;8.87;;;6.83;;
12171;SDS011;6149;52.418;13.668;2024-02-26T03:18:03;9.40;;;6.33;;
12171;SDS011;6149;52.418;13.668;2024-02-26T03:20:30;8.00;;;6.40;;
12171;SDS011;6149;52.418;13.668;2024-02-26T03:22:56;7.97;;;6.20;;
12171;SDS011;6149;52.418;13.668;2024-02-26T03:25:23;8.87;;;6.53;;
12171;SDS011;6149;52.418;13.668;2024-02-26T03:27:50;8.83;;;6.13;;
12171;SDS011;6149;52.418;13.668;2024-02-26T03:30:17;8.23;;;6.03;;
12171;SDS011;6149;52.418;13.668;2024-02-26T03:32:44;7.87;;;6.20;;
12171;SDS011;6149;52.418;13.668;2024-02-26T03:35:12;7.30;;;5.83;;
12171;SDS011;6149;52.418;13.668;2024-02-26T03:37:38;9.03;;;6.03;;
12171;SDS011;6149;52.418;13.668;2024-02-26T03:40:05;7.23;;;6.03;;
12171;SDS011;6149;52.418;13.668;2024-02-26T03:42:34;7.43;;;5.90;;
12171;SDS011;6149;52.418;13.668;2024-02-26T03:45:00;8.67;;;6.07;;
12171;SDS011;6149;52.418;13.668;2024-02-26T03:47:28;7.20;;;6.00;;
12171;SDS011;6149;52.418;13.668;2024-02-26T03:49:55;8.30;;;5.93;;
12171;SDS011;6149;52.418;13.668;2024-02-26T03:52:21;8.57;;;6.43;;
12171;SDS011;6149;52.418;13.668;2024-02-26T03:54:48;6.83;;;5.40;;
12171;SDS011;6149;52.418;13.668;2024-02-26T03:57:15;7.10;;;5.97;;
12171;SDS011;6149;52.418;13.668;2024-02-26T03:59:41;7.00;;;6.17;;
12171;SDS011;6149;52.418;13.668;2024-02-26T04:02:08;8.90;;;6.40;;
12171;SDS011;6149;52.418;13.668;2024-02-26T04:04:36;6.87;;;5.50;;
12171;SDS011;6149;52.418;13.668;2024-02-26T04:07:03;8.47;;;5.60;;
12171;SDS011;6149;52.418;13.668;2024-02-26T04:09:30;9.13;;;6.37;;
12171;SDS011;6149;52.418;13.668;2024-02-26T04:11:57;7.10;;;5.80;;
12171;SDS011;6149;52.418;13.668;2024-02-26T04:14:24;8.53;;;6.03;;
12171;SDS011;6149;52.418;13.668;2024-02-26T04:16:51;6.97;;;5.77;;
12171;SDS011;6149;52.418;13.668;2024-02-26T04:19:19;8.37;;;6.00;;
12171;SDS011;6149;52.418;13.668;2024-02-26T04:21:47;8.33;;;6.07;;
12171;SDS011;6149;52.418;13.668;2024-02-26T04:24:14;7.13;;;5.67;;
12171;SDS011;6149;52.418;13.668;2024-02-26T04:26:41;7.50;;;5.67;;
12171;SDS011;6149;52.418;13.668;2024-02-26T04:29:07;8.97;;;5.90;;
12171;SDS011;6149;52.418;13.668;2024-02-26T04:31:34;10.07;;;6.77;;
12171;SDS011;6149;52.418;13.668;2024-02-26T04:34:00;8.47;;;6.50;;
12171;SDS011;6149;52.418;13.668;2024-02-26T04:36:27;9.70;;;5.83;;
12171;SDS011;6149;52.418;13.668;2024-02-26T04:38:55;7.40;;;6.10;;
12171;SDS011;6149;52.418;13.668;2024-02-26T04:41:21;7.37;;;5.90;;
12171;SDS011;6149;52.418;13.668;2024-02-26T04:43:48;8.53;;;6.17;;
12171;SDS011;6149;52.418;13.668;2024-02-26T04:46:14;7.70;;;5.73;;
12171;SDS011;6149;52.418;13.668;2024-02-26T04:48:41;8.47;;;6.40;;
12171;SDS011;6149;52.418;13.668;2024-02-26T04:51:08;7.80;;;6.13;;
12171;SDS011;6149;52.418;13.668;2024-02-26T04:53:34;9.27;;;6.40;;
12171;SDS011;6149;52.418;13.668;2024-02-26T04:56:02;8.17;;;6.30;;
12171;SDS011;6149;52.418;13.668;2024-02-26T04:58:29;6.97;;;5.77;;
12171;SDS011;6149;52.418;13.668;2024-02-26T05:00:56;8.37;;;6.67;;
12171;SDS011;6149;52.418;13.668;2024-02-26T05:03:22;8.23;;;6.37;;
12171;SDS011;6149;52.418;13.668;2024-02-26T05:05:49;10.37;;;6.90;;
12171;SDS011;6149;52.418;13.668;2024-02-26T05:08:15;7.87;;;6.27;;
12171;SDS011;6149;52.418;13.668;2024-02-26T05:10:42;8.93;;;7.00;;
12171;SDS011;6149;52.418;13.668;2024-02-26T05:13:10;9.90;;;8.00;;
12171;SDS011;6149;52.418;13.668;2024-02-26T05:15:36;10.53;;;7.80;;
12171;SDS011;6149;52.418;13.668;2024-02-26T05:18:03;10.30;;;6.73;;
12171;SDS011;6149;52.418;13.668;2024-02-26T05:20:30;9.87;;;7.20;;
12171;SDS011;6149;52.418;13.668;2024-02-26T05:23:00;12.57;;;7.00;;
12171;SDS011;6149;52.418;13.668;2024-02-26T05:25:26;9.20;;;7.13;;
12171;SDS011;6149;52.418;13.668;2024-02-26T05:27:53;7.77;;;6.40;;
12171;SDS011;6149;52.418;13.668;2024-02-26T05:30:21;9.27;;;6.60;;
12171;SDS011;6149;52.418;13.668;2024-02-26T05:32:47;9.90;;;6.60;;
12171;SDS011;6149;52.418;13.668;2024-02-26T05:35:14;10.53;;;7.27;;
12171;SDS011;6149;52.418;13.668;2024-02-26T05:37:41;9.40;;;7.20;;
12171;SDS011;6149;52.418;13.668;2024-02-26T05:40:07;8.77;;;6.30;;
12171;SDS011;6149;52.418;13.668;2024-02-26T05:42:35;9.60;;;7.33;;
12171;SDS011;6149;52.418;13.668;2024-02-26T05:45:01;9.03;;;7.03;;
12171;SDS011;6149;52.418;13.668;2024-02-26T05:47:32;10.07;;;6.93;;
12171;SDS011;6149;52.418;13.668;2024-02-26T05:49:58;8.70;;;7.27;;
12171;SDS011;6149;52.418;13.668;2024-02-26T05:52:26;10.07;;;6.73;;
12171;SDS011;6149;52.418;13.668;2024-02-26T05:54:52;8.60;;;6.80;;
12171;SDS011;6149;52.418;13.668;2024-02-26T05:57:19;7.17;;;6.10;;
12171;SDS011;6149;52.418;13.668;2024-02-26T05:59:45;9.33;;;7.07;;
12171;SDS011;6149;52.418;13.668;2024-02-26T06:02:12;8.57;;;6.60;;
12171;SDS011;6149;52.418;13.668;2024-02-26T06:04:40;9.13;;;6.87;;
12171;SDS011;6149;52.418;13.668;2024-02-26T06:07:06;11.13;;;7.77;;
12171;SDS011;6149;52.418;13.668;2024-02-26T06:09:33;11.77;;;8.67;;
12171;SDS011;6149;52.418;13.668;2024-02-26T06:11:59;9.90;;;7.80;;
12171;SDS011;6149;52.418;13.668;2024-02-26T06:14:26;10.07;;;7.30;;
12171;SDS011;6149;52.418;13.668;2024-02-26T06:16:52;12.60;;;7.93;;
12171;SDS011;6149;52.418;13.668;2024-02-26T06:19:19;10.70;;;7.23;;
12171;SDS011;6149;52.418;13.668;2024-02-26T06:21:47;10.90;;;8.37;;
12171;SDS011;6149;52.418;13.668;2024-02-26T06:24:13;12.97;;;7.90;;
12171;SDS011;6149;52.418;13.668;2024-02-26T06:26:40;14.90;;;8.47;;
12171;SDS011;6149;52.418;13.668;2024-02-26T06:29:06;12.43;;;9.07;;
12171;SDS011;6149;52.418;13.668;2024-02-26T06:31:33;12.50;;;8.17;;
12171;SDS011;6149;52.418;13.668;2024-02-26T06:33:59;13.40;;;9.13;;
12171;SDS011;6149;52.418;13.668;2024-02-26T06:36:25;11.27;;;8.40;;
12171;SDS011;6149;52.418;13.668;2024-02-26T06:38:53;12.80;;;8.73;;
12171;SDS011;6149;52.418;13.668;2024-02-26T06:41:20;13.00;;;9.67;;
12171;SDS011;6149;52.418;13.668;2024-02-26T06:43:52;15.03;;;8.70;;
12171;SDS011;6149;52.418;13.668;2024-02-26T06:46:18;12.07;;;8.70;;
12171;SDS011;6149;52.418;13.668;2024-02-26T06:48:45;13.23;;;8.40;;
12171;SDS011;6149;52.418;13.668;2024-02-26T06:51:11;13.37;;;9.37;;
12171;SDS011;6149;52.418;13.668;2024-02-26T06:53:38;11.77;;;8.20;;
12171;SDS011;6149;52.418;13.668;2024-02-26T06:56:06;12.17;;;9.50;;
12171;SDS011;6149;52.418;13.668;2024-02-26T06:58:32;13.93;;;9.57;;
12171;SDS011;6149;52.418;13.668;2024-02-26T07:00:59;12.17;;;9.23;;
12171;SDS011;6149;52.418;13.668;2024-02-26T07:03:25;12.97;;;9.07;;
12171;SDS011;6149;52.418;13.668;2024-02-26T07:05:52;13.10;;;8.70;;
12171;SDS011;6149;52.418;13.668;2024-02-26T07:08:18;12.40;;;8.83;;
12171;SDS011;6149;52.418;13.668;2024-02-26T07:10:46;15.27;;;9.70;;
12171;SDS011;6149;52.418;13.668;2024-02-26T07:13:14;11.07;;;8.63;;
12171;SDS011;6149;52.418;13.668;2024-02-26T07:15:40;13.33;;;9.63;;
12171;SDS011;6149;52.418;13.668;2024-02-26T07:18:07;17.07;;;11.43;;
12171;SDS011;6149;52.418;13.668;2024-02-26T07:20:33;14.57;;;10.87;;
12171;SDS011;6149;52.418;13.668;2024-02-26T07:23:00;16.20;;;11.77;;
12171;SDS011;6149;52.418;13.668;2024-02-26T07:25:28;22.03;;;13.83;;
12171;SDS011;6149;52.418;13.668;2024-02-26T07:27:54;17.37;;;12.87;;
12171;SDS011;6149;52.418;13.668;2024-02-26T07:30:22;19.33;;;13.87;;
12171;SDS011;6149;52.418;13.668;2024-02-26T07:32:49;19.13;;;12.60;;
12171;SDS011;6149;52.418;13.668;2024-02-26T07:35:16;19.63;;;12.60;;
12171;SDS011;6149;52.418;13.668;2024-02-26T07:37:43;17.63;;;12.53;;
12171;SDS011;6149;52.418;13.668;2024-02-26T07:40:10;20.37;;;14.03;;
12171;SDS011;6149;52.418;13.668;2024-02-26T07:42:38;20.93;;;14.03;;
12171;SDS011;6149;52.418;13.668;2024-02-26T07:45:05;23.37;;;15.23;;
12171;SDS011;6149;52.418;13.668;2024-02-26T07:47:34;24.90;;;16.83;;
12171;SDS011;6149;52.418;13.668;2024-02-26T07:50:00;25.83;;;17.30;;
12171;SDS011;6149;52.418;13.668;2024-02-26T07:52:27;27.27;;;18.37;;
12171;SDS011;6149;52.418;13.668;2024-02-26T07:54:53;28.23;;;18.23;;
12171;SDS011;6149;52.418;13.668;2024-02-26T07:57:20;23.80;;;16.83;;
12171;SDS011;6149;52.418;13.668;2024-02-26T07:59:46;27.10;;;19.40;;
12171;SDS011;6149;52.418;13.668;2024-02-26T08:02:14;25.93;;;18.07;;
12171;SDS011;6149;52.418;13.668;2024-02-26T08:04:42;27.17;;;18.47;;
12171;SDS011;6149;52.418;13.668;2024-02-26T08:07:09;27.53;;;18.97;;
12171;SDS011;6149;52.418;13.668;2024-02-26T08:09:35;27.23;;;18.97;;
12171;SDS011;6149;52.418;13.668;2024-02-26T08:12:02;26.47;;;17.63;;
12171;SDS011;6149;52.418;13.668;2024-02-26T08:14:29;33.87;;;20.97;;
12171;SDS011;6149;52.418;13.668;2024-02-26T08:16:57;32.27;;;21.37;;
12171;SDS011;6149;52.418;13.668;2024-02-26T08:19:24;32.30;;;22.33;;
12171;SDS011;6149;52.418;13.668;2024-02-26T08:21:52;26.10;;;18.87;;
12171;SDS011;6149;52.418;13.668;2024-02-26T08:24:18;32.83;;;22.33;;
12171;SDS011;6149;52.418;13.668;2024-02-26T08:26:45;35.57;;;22.77;;
12171;SDS011;6149;52.418;13.668;2024-02-26T08:29:11;38.23;;;25.63;;
12171;SDS011;6149;52.418;13.668;2024-02-26T08:31:38;38.67;;;25.97;;
12171;SDS011;6149;52.418;13.668;2024-02-26T08:34:04;37.70;;;25.60;;
12171;SDS011;6149;52.418;13.668;2024-02-26T08:36:32;43.17;;;28.23;;
12171;SDS011;6149;52.418;13.668;2024-02-26T08:39:01;41.47;;;27.20;;
12171;SDS011;6149;52.418;13.668;2024-02-26T08:41:29;41.30;;;28.57;;
12171;SDS011;6149;52.418;13.668;2024-02-26T08:43:55;41.97;;;27.20;;
12171;SDS011;6149;52.418;13.668;2024-02-26T08:46:23;39.97;;;27.83;;
12171;SDS011;6149;52.418;13.668;2024-02-26T08:48:50;39.97;;;26.80;;
12171;SDS011;6149;52.418;13.668;2024-02-26T08:51:17;39.67;;;27.63;;
12171;SDS011;6149;52.418;13.668;2024-02-26T08:53:43;42.07;;;28.17;;
12171;SDS011;6149;52.418;13.668;2024-02-26T08:56:12;40.37;;;26.83;;
12171;SDS011;6149;52.418;13.668;2024-02-26T08:58:41;39.13;;;27.23;;
12171;SDS011;6149;52.418;13.668;2024-02-26T09:01:08;36.00;;;26.57;;
12171;SDS011;6149;52.418;13.668;2024-02-26T09:03:35;39.60;;;26.60;;
12171;SDS011;6149;52.418;13.668;2024-02-26T09:06:01;37.07;;;26.80;;
12171;SDS011;6149;52.418;13.668;2024-02-26T09:08:28;32.10;;;24.10;;
12171;SDS011;6149;52.418;13.668;2024-02-26T09:10:54;33.10;;;25.27;;
12171;SDS011;6149;52.418;13.668;2024-02-26T09:13:22;32.77;;;23.47;;
12171;SDS011;6149;52.418;13.668;2024-02-26T09:15:49;31.20;;;22.70;;
12171;SDS011;6149;52.418;13.668;2024-02-26T09:18:16;29.47;;;21.87;;
12171;SDS011;6149;52.418;13.668;2024-02-26T09:20:42;25.83;;;19.70;;
12171;SDS011;6149;52.418;13.668;2024-02-26T09:23:09;26.37;;;20.87;;
12171;SDS011;6149;52.418;13.668;2024-02-26T09:25:35;30.80;;;23.30;;
12171;SDS011;6149;52.418;13.668;2024-02-26T09:28:02;27.93;;;21.27;;
12171;SDS011;6149;52.418;13.668;2024-02-26T09:30:30;30.93;;;22.00;;
12171;SDS011;6149;52.418;13.668;2024-02-26T09:32:57;25.43;;;19.20;;
12171;SDS011;6149;52.418;13.668;2024-02-26T09:35:23;25.13;;;19.43;;
12171;SDS011;6149;52.418;13.668;2024-02-26T09:37:51;24.33;;;19.77;;
12171;SDS011;6149;52.418;13.668;2024-02-26T09:40:18;26.20;;;18.93;;
12171;SDS011;6149;52.418;13.668;2024-02-26T09:42:45;23.37;;;18.83;;
12171;SDS011;6149;52.418;13.668;2024-02-26T09:45:12;23.30;;;18.93;;
12171;SDS011;6149;52.418;13.668;2024-02-26T09:47:46;21.93;;;18.33;;
12171;SDS011;6149;52.418;13.668;2024-02-26T09:50:14;23.63;;;18.07;;
12171;SDS011;6149;52.418;13.668;2024-02-26T09:52:47;23.63;;;18.33;;
12171;SDS011;6149;52.418;13.668;2024-02-26T09:55:14;21.63;;;16.77;;
12171;SDS011;6149;52.418;13.668;2024-02-26T09:57:42;20.70;;;16.63;;
12171;SDS011;6149;52.418;13.668;2024-02-26T10:00:13;18.50;;;15.07;;
12171;SDS011;6149;52.418;13.668;2024-02-26T10:02:46;18.97;;;15.50;;
12171;SDS011;6149;52.418;13.668;2024-02-26T10:05:14;20.77;;;15.67;;
12171;SDS011;6149;52.418;13.668;2024-02-26T10:07:43;18.50;;;14.90;;
12171;SDS011;6149;52.418;13.668;2024-02-26T10:10:10;20.77;;;13.53;;
12171;SDS011;6149;52.418;13.668;2024-02-26T10:12:37;17.17;;;13.93;;
12171;SDS011;6149;52.418;13.668;2024-02-26T10:15:04;17.37;;;13.63;;
12171;SDS011;6149;52.418;13.668;2024-02-26T10:17:31;16.77;;;12.83;;
12171;SDS011;6149;52.418;13.668;2024-02-26T10:20:11;13.53;;;11.57;;
12171;SDS011;6149;52.418;13.668;2024-02-26T10:22:39;13.57;;;11.93;;
12171;SDS011;6149;52.418;13.668;2024-02-26T10:25:07;13.63;;;10.93;;
12171;SDS011;6149;52.418;13.668;2024-02-26T10:27:34;11.83;;;10.63;;
12171;SDS011;6149;52.418;13.668;2024-02-26T10:30:02;11.67;;;10.40;;
12171;SDS011;6149;52.418;13.668;2024-02-26T10:32:30;14.03;;;9.97;;
12171;SDS011;6149;52.418;13.668;2024-02-26T10:34:56;12.50;;;10.57;;
12171;SDS011;6149;52.418;13.668;2024-02-26T10:37:24;10.20;;;8.93;;
12171;SDS011;6149;52.418;13.668;2024-02-26T10:39:52;9.23;;;8.17;;
12171;SDS011;6149;52.418;13.668;2024-02-26T10:42:19;11.10;;;8.47;;
12171;SDS011;6149;52.418;13.668;2024-02-26T10:44:46;11.57;;;8.47;;
12171;SDS011;6149;52.418;13.668;2024-02-26T10:47:13;10.50;;;8.33;;
12171;SDS011;6149;52.418;13.668;2024-02-26T10:49:44;10.23;;;7.87;;
12171;SDS011;6149;52.418;13.668;2024-02-26T10:52:13;8.70;;;7.30;;
12171;SDS011;6149;52.418;13.668;2024-02-26T10:54:42;8.33;;;6.93;;
12171;SDS011;6149;52.418;13.668;2024-02-26T10:57:14;9.03;;;7.03;;
12171;SDS011;6149;52.418;13.668;2024-02-26T10:59:42;8.93;;;7.57;;
12171;SDS011;6149;52.418;13.668;2024-02-26T11:02:10;10.57;;;7.17;;
12171;SDS011;6149;52.418;13.668;2024-02-26T11:04:37;9.23;;;8.20;;
12171;SDS011;6149;52.418;13.668;2024-02-26T11:07:04;9.63;;;7.73;;
12171;SDS011;6149;52.418;13.668;2024-02-26T11:09:32;8.83;;;7.83;;
12171;SDS011;6149;52.418;13.668;2024-02-26T11:12:01;9.53;;;8.17;;
12171;SDS011;6149;52.418;13.668;2024-02-26T11:14:34;8.63;;;7.53;;
12171;SDS011;6149;52.418;13.668;2024-02-26T11:17:01;9.17;;;7.70;;
12171;SDS011;6149;52.418;13.668;2024-02-26T11:19:28;10.67;;;8.37;;
12171;SDS011;6149;52.418;13.668;2024-02-26T11:21:57;10.10;;;8.10;;
12171;SDS011;6149;52.418;13.668;2024-02-26T11:24:32;9.70;;;7.63;;
12171;SDS011;6149;52.418;13.668;2024-02-26T11:27:07;9.07;;;7.93;;
12171;SDS011;6149;52.418;13.668;2024-02-26T11:29:40;9.87;;;8.10;;
12171;SDS011;6149;52.418;13.668;2024-02-26T11:32:14;9.87;;;8.23;;
12171;SDS011;6149;52.418;13.668;2024-02-26T11:34:40;9.97;;;8.90;;
12171;SDS011;6149;52.418;13.668;2024-02-26T11:37:09;10.93;;;8.50;;
12171;SDS011;6149;52.418;13.668;2024-02-26T11:39:37;10.97;;;8.63;;
12171;SDS011;6149;52.418;13.668;2024-02-26T11:42:08;10.50;;;9.00;;
12171;SDS011;6149;52.418;13.668;2024-02-26T11:44:36;11.93;;;8.93;;
12171;SDS011;6149;52.418;13.668;2024-02-26T11:47:12;12.50;;;9.37;;
12171;SDS011;6149;52.418;13.668;2024-02-26T11:49:40;10.53;;;9.10;;
12171;SDS011;6149;52.418;13.668;2024-02-26T11:52:07;10.13;;;8.80;;
12171;SDS011;6149;52.418;13.668;2024-02-26T11:54:45;11.03;;;9.73;;
12171;SDS011;6149;52.418;13.668;2024-02-26T11:57:22;9.30;;;8.37;;
12171;SDS011;6149;52.418;13.668;2024-02-26T11:59:50;9.83;;;8.77;;
12171;SDS011;6149;52.418;13.668;2024-02-26T12:05:26;10.97;;;9.27;;
12171;SDS011;6149;52.418;13.668;2024-02-26T12:07:59;11.67;;;9.43;;
12171;SDS011;6149;52.418;13.668;2024-02-26T12:10:30;11.73;;;9.37;;
12171;SDS011;6149;52.418;13.668;2024-02-26T12:13:04;10.87;;;9.57;;
12171;SDS011;6149;52.418;13.668;2024-02-26T12:15:33;11.80;;;9.00;;
12171;SDS011;6149;52.418;13.668;2024-02-26T12:18:03;10.47;;;9.07;;
12171;SDS011;6149;52.418;13.668;2024-02-26T12:20:32;11.30;;;9.90;;
12171;SDS011;6149;52.418;13.668;2024-02-26T12:23:00;13.30;;;10.43;;
12171;SDS011;6149;52.418;13.668;2024-02-26T12:25:29;13.37;;;10.20;;
12171;SDS011;6149;52.418;13.668;2024-02-26T12:27:57;12.03;;;10.27;;
12171;SDS011;6149;52.418;13.668;2024-02-26T12:30:26;11.43;;;10.23;;
12171;SDS011;6149;52.418;13.668;2024-02-26T12:32:55;14.17;;;10.37;;
12171;SDS011;6149;52.418;13.668;2024-02-26T12:35:23;10.03;;;9.00;;
12171;SDS011;6149;52.418;13.668;2024-02-26T12:37:51;14.07;;;9.97;;
12171;SDS011;6149;52.418;13.668;2024-02-26T12:40:18;11.97;;;10.13;;
12171;SDS011;6149;52.418;13.668;2024-02-26T12:42:45;13.03;;;11.33;;
12171;SDS011;6149;52.418;13.668;2024-02-26T12:45:12;14.77;;;12.23;;
12171;SDS011;6149;52.418;13.668;2024-02-26T12:47:42;15.00;;;13.10;;
12171;SDS011;6149;52.418;13.668;2024-02-26T12:50:10;16.37;;;12.80;;
12171;SDS011;6149;52.418;13.668;2024-02-26T12:52:38;15.97;;;13.07;;
12171;SDS011;6149;52.418;13.668;2024-02-26T12:55:07;16.67;;;13.70;;
12171;SDS011;6149;52.418;13.668;2024-02-26T12:57:36;15.07;;;12.50;;
12171;SDS011;6149;52.418;13.668;2024-02-26T13:00:04;16.87;;;13.83;;
12171;SDS011;6149;52.418;13.668;2024-02-26T13:02:34;15.43;;;13.40;;
12171;SDS011;6149;52.418;13.668;2024-02-26T13:05:04;17.13;;;13.07;;
12171;SDS011;6149;52.418;13.668;2024-02-26T13:07:33;15.50;;;13.30;;
12171;SDS011;6149;52.418;13.668;2024-02-26T13:10:00;16.77;;;13.77;;
12171;SDS011;6149;52.418;13.668;2024-02-26T13:12:27;15.47;;;13.03;;
12171;SDS011;6149;52.418;13.668;2024-02-26T13:14:59;16.87;;;13.77;;
12171;SDS011;6149;52.418;13.668;2024-02-26T13:17:26;15.80;;;12.83;;
12171;SDS011;6149;52.418;13.668;2024-02-26T13:19:53;20.67;;;14.70;;
12171;SDS011;6149;52.418;13.668;2024-02-26T13:22:21;17.67;;;14.47;;
12171;SDS011;6149;52.418;13.668;2024-02-26T13:24:53;17.43;;;14.30;;
12171;SDS011;6149;52.418;13.668;2024-02-26T13:27:21;19.03;;;15.03;;
12171;SDS011;6149;52.418;13.668;2024-02-26T13:29:48;17.33;;;14.80;;
12171;SDS011;6149;52.418;13.668;2024-02-26T13:32:15;18.43;;;14.73;;
12171;SDS011;6149;52.418;13.668;2024-02-26T13:34:41;18.37;;;14.80;;
12171;SDS011;6149;52.418;13.668;2024-02-26T13:37:08;18.30;;;14.50;;
12171;SDS011;6149;52.418;13.668;2024-02-26T13:39:36;18.63;;;15.13;;
12171;SDS011;6149;52.418;13.668;2024-02-26T13:42:05;20.60;;;15.00;;
12171;SDS011;6149;52.418;13.668;2024-02-26T13:44:36;20.07;;;16.10;;
12171;SDS011;6149;52.418;13.668;2024-02-26T13:47:05;17.33;;;14.93;;
12171;SDS011;6149;52.418;13.668;2024-02-26T13:49:32;19.63;;;16.03;;
12171;SDS011;6149;52.418;13.668;2024-02-26T13:51:58;19.87;;;15.33;;
12171;SDS011;6149;52.418;13.668;2024-02-26T13:54:25;20.07;;;15.87;;
12171;SDS011;6149;52.418;13.668;2024-02-26T13:56:53;17.03;;;14.53;;
12171;SDS011;6149;52.418;13.668;2024-02-26T13:59:19;21.30;;;15.60;;
12171;SDS011;6149;52.418;13.668;2024-02-26T14:01:46;18.43;;;16.17;;
12171;SDS011;6149;52.418;13.668;2024-02-26T14:04:12;20.30;;;16.03;;
12171;SDS011;6149;52.418;13.668;2024-02-26T14:06:38;18.70;;;15.73;;
12171;SDS011;6149;52.418;13.668;2024-02-26T14:09:06;16.73;;;14.77;;
12171;SDS011;6149;52.418;13.668;2024-02-26T14:11:32;19.43;;;16.30;;
12171;SDS011;6149;52.418;13.668;2024-02-26T14:14:01;21.13;;;16.30;;
12171;SDS011;6149;52.418;13.668;2024-02-26T14:16:27;20.50;;;16.13;;
12171;SDS011;6149;52.418;13.668;2024-02-26T14:18:54;19.20;;;15.40;;
12171;SDS011;6149;52.418;13.668;2024-02-26T14:21:20;18.03;;;15.70;;
12171;SDS011;6149;52.418;13.668;2024-02-26T14:23:47;18.80;;;15.90;;
12171;SDS011;6149;52.418;13.668;2024-02-26T14:26:13;17.60;;;15.07;;
12171;SDS011;6149;52.418;13.668;2024-02-26T14:28:40;19.77;;;15.20;;
12171;SDS011;6149;52.418;13.668;2024-02-26T14:31:08;19.83;;;14.93;;
12171;SDS011;6149;52.418;13.668;2024-02-26T14:33:37;18.03;;;14.90;;
12171;SDS011;6149;52.418;13.668;2024-02-26T14:36:05;18.60;;;15.00;;
12171;SDS011;6149;52.418;13.668;2024-02-26T14:38:32;19.77;;;15.30;;